sensor_id;sensor_type;location;lat;lon;timestamp;pressure;altitude;pressure_sealevel;temperature;humidity
30744;BME280;17486;46.738;7.622;2023-09-19T00:00:37;95271.84;;;17.67;70.60
30744;BME280;17486;46.738;7.622;2023-09-19T00:03:03;95264.31;;;17.73;69.77
30744;BME280;17486;46.738;7.622;2023-09-19T00:05:35;95253.31;;;17.68;68.70
30744;BME280;17486;46.738;7.622;2023-09-19T00:08:01;95272.34;;;17.83;67.65
30744;BME280;17486;46.738;7.622;2023-09-19T00:10:29;95269.84;;;17.82;67.13
30744;BME280;17486;46.738;7.622;2023-09-19T00:13:00;95271.72;;;17.80;66.94
30744;BME280;17486;46.738;7.622;2023-09-19T00:15:31;95266.00;;;17.74;66.84
30744;BME280;17486;46.738;7.622;2023-09-19T00:18:00;95262.19;;;17.67;67.10
30744;BME280;17486;46.738;7.622;2023-09-19T00:20:26;95274.75;;;17.75;66.94
30744;BME280;17486;46.738;7.622;2023-09-19T00:22:51;95276.75;;;17.71;66.51
30744;BME280;17486;46.738;7.622;2023-09-19T00:25:19;95272.44;;;17.70;66.69
30744;BME280;17486;46.738;7.622;2023-09-19T00:27:46;95272.44;;;17.70;66.88
30744;BME280;17486;46.738;7.622;2023-09-19T00:30:15;95275.09;;;17.70;66.90
30744;BME280;17486;46.738;7.622;2023-09-19T00:32:45;95265.88;;;17.65;67.02
30744;BME280;17486;46.738;7.622;2023-09-19T00:35:13;95263.34;;;17.63;66.77
30744;BME280;17486;46.738;7.622;2023-09-19T00:37:39;95288.59;;;17.77;66.70
30744;BME280;17486;46.738;7.622;2023-09-19T00:40:06;95287.78;;;17.77;66.37
30744;BME280;17486;46.738;7.622;2023-09-19T00:42:34;95273.41;;;17.69;66.43
30744;BME280;17486;46.738;7.622;2023-09-19T00:45:03;95283.59;;;17.74;66.58
30744;BME280;17486;46.738;7.622;2023-09-19T00:47:28;95286.09;;;17.76;66.71
30744;BME280;17486;46.738;7.622;2023-09-19T00:49:55;95294.47;;;17.81;67.19
30744;BME280;17486;46.738;7.622;2023-09-19T00:52:20;95264.44;;;17.72;67.38
30744;BME280;17486;46.738;7.622;2023-09-19T00:54:47;95298.28;;;17.88;67.43
30744;BME280;17486;46.738;7.622;2023-09-19T00:57:14;95277.72;;;17.82;67.65
30744;BME280;17486;46.738;7.622;2023-09-19T00:59:40;95290.16;;;17.91;67.92
30744;BME280;17486;46.738;7.622;2023-09-19T01:02:07;95267.69;;;17.76;68.41
30744;BME280;17486;46.738;7.622;2023-09-19T01:04:34;95297.44;;;17.87;68.54
30744;BME280;17486;46.738;7.622;2023-09-19T01:06:59;95291.47;;;17.85;68.78
30744;BME280;17486;46.738;7.622;2023-09-19T01:09:25;95296.84;;;17.84;68.88
30744;BME280;17486;46.738;7.622;2023-09-19T01:11:53;95295.06;;;17.84;69.08
30744;BME280;17486;46.738;7.622;2023-09-19T01:15:30;95294.34;;;17.82;69.09
30744;BME280;17486;46.738;7.622;2023-09-19T01:17:42;95279.16;;;17.74;69.45
30744;BME280;17486;46.738;7.622;2023-09-19T01:20:19;95297.31;;;17.78;69.63
30744;BME280;17486;46.738;7.622;2023-09-19T01:23:07;95297.69;;;17.73;69.87
30744;BME280;17486;46.738;7.622;2023-09-19T01:31:12;95295.41;;;17.68;69.86
30744;BME280;17486;46.738;7.622;2023-09-19T01:33:55;95288.00;;;17.62;69.92
30744;BME280;17486;46.738;7.622;2023-09-19T01:36:32;95299.34;;;17.63;69.90
30744;BME280;17486;46.738;7.622;2023-09-19T01:39:02;95285.38;;;17.62;70.17
30744;BME280;17486;46.738;7.622;2023-09-19T01:47:26;95287.50;;;17.68;69.23
30744;BME280;17486;46.738;7.622;2023-09-19T01:50:13;95296.00;;;17.72;69.05
30744;BME280;17486;46.738;7.622;2023-09-19T01:53:15;95293.97;;;17.64;69.03
30744;BME280;17486;46.738;7.622;2023-09-19T01:55:46;95307.84;;;17.78;68.58
30744;BME280;17486;46.738;7.622;2023-09-19T01:58:26;95321.72;;;17.80;68.72
30744;BME280;17486;46.738;7.622;2023-09-19T02:00:54;95300.44;;;17.71;68.72
30744;BME280;17486;46.738;7.622;2023-09-19T02:03:21;95312.03;;;17.80;68.98
30744;BME280;17486;46.738;7.622;2023-09-19T02:05:50;95284.38;;;17.63;68.90
30744;BME280;17486;46.738;7.622;2023-09-19T02:08:18;95273.66;;;17.44;69.28
30744;BME280;17486;46.738;7.622;2023-09-19T02:10:44;95307.38;;;17.61;69.43
30744;BME280;17486;46.738;7.622;2023-09-19T02:13:17;95304.72;;;17.61;69.53
30744;BME280;17486;46.738;7.622;2023-09-19T02:15:43;95304.00;;;17.59;69.57
30744;BME280;17486;46.738;7.622;2023-09-19T02:18:10;95275.53;;;17.42;69.79
30744;BME280;17486;46.738;7.622;2023-09-19T02:20:36;95287.84;;;17.52;69.83
30744;BME280;17486;46.738;7.622;2023-09-19T02:23:02;95299.31;;;17.51;70.08
30744;BME280;17486;46.738;7.622;2023-09-19T02:25:28;95296.81;;;17.50;70.58
30744;BME280;17486;46.738;7.622;2023-09-19T02:27:53;95300.31;;;17.50;70.58
30744;BME280;17486;46.738;7.622;2023-09-19T02:30:19;95293.00;;;17.43;70.96
30744;BME280;17486;46.738;7.622;2023-09-19T02:32:51;95301.94;;;17.51;70.75
30744;BME280;17486;46.738;7.622;2023-09-19T02:35:16;95300.06;;;17.53;70.41
30744;BME280;17486;46.738;7.622;2023-09-19T02:37:45;95296.94;;;17.48;70.35
30744;BME280;17486;46.738;7.622;2023-09-19T02:40:10;95300.75;;;17.44;69.96
30744;BME280;17486;46.738;7.622;2023-09-19T02:42:47;95291.06;;;17.33;70.04
30744;BME280;17486;46.738;7.622;2023-09-19T02:45:15;95299.81;;;17.45;70.15
30744;BME280;17486;46.738;7.622;2023-09-19T02:47:41;95282.47;;;17.43;70.03
30744;BME280;17486;46.738;7.622;2023-09-19T02:50:06;95286.88;;;17.42;70.09
30744;BME280;17486;46.738;7.622;2023-09-19T02:52:32;95295.75;;;17.52;69.85
30744;BME280;17486;46.738;7.622;2023-09-19T02:54:57;95307.00;;;17.54;69.85
30744;BME280;17486;46.738;7.622;2023-09-19T02:57:22;95295.25;;;17.47;69.83
30744;BME280;17486;46.738;7.622;2023-09-19T02:59:49;95307.69;;;17.56;69.73
30744;BME280;17486;46.738;7.622;2023-09-19T03:02:14;95313.09;;;17.55;69.81
30744;BME280;17486;46.738;7.622;2023-09-19T03:04:41;95299.09;;;17.54;69.93
30744;BME280;17486;46.738;7.622;2023-09-19T03:07:06;95309.50;;;17.56;69.74
30744;BME280;17486;46.738;7.622;2023-09-19T03:09:32;95279.13;;;17.40;69.42
30744;BME280;17486;46.738;7.622;2023-09-19T03:11:57;95305.19;;;17.55;68.74
30744;BME280;17486;46.738;7.622;2023-09-19T03:14:23;95307.00;;;17.54;68.86
30744;BME280;17486;46.738;7.622;2023-09-19T03:16:49;95300.19;;;17.52;68.52
30744;BME280;17486;46.738;7.622;2023-09-19T03:19:14;95300.88;;;17.54;68.32
30744;BME280;17486;46.738;7.622;2023-09-19T03:21:40;95303.03;;;17.49;68.28
30744;BME280;17486;46.738;7.622;2023-09-19T03:24:05;95306.13;;;17.43;68.18
30744;BME280;17486;46.738;7.622;2023-09-19T03:26:31;95303.25;;;17.46;68.25
30744;BME280;17486;46.738;7.622;2023-09-19T03:28:58;95302.44;;;17.45;68.51
30744;BME280;17486;46.738;7.622;2023-09-19T03:31:23;95293.56;;;17.46;68.62
30744;BME280;17486;46.738;7.622;2023-09-19T03:33:49;95284.84;;;17.46;69.22
30744;BME280;17486;46.738;7.622;2023-09-19T03:36:14;95293.94;;;17.42;68.78
30744;BME280;17486;46.738;7.622;2023-09-19T03:38:40;95300.50;;;17.47;68.81
30744;BME280;17486;46.738;7.622;2023-09-19T03:41:05;95304.69;;;17.50;68.59
30744;BME280;17486;46.738;7.622;2023-09-19T03:43:32;95308.06;;;17.52;68.41
30744;BME280;17486;46.738;7.622;2023-09-19T03:46:01;95290.81;;;17.36;68.45
30744;BME280;17486;46.738;7.622;2023-09-19T03:48:28;95308.53;;;17.46;68.30
30744;BME280;17486;46.738;7.622;2023-09-19T03:50:54;95300.88;;;17.43;68.17
30744;BME280;17486;46.738;7.622;2023-09-19T03:53:21;95301.22;;;17.38;68.44
30744;BME280;17486;46.738;7.622;2023-09-19T03:55:47;95304.59;;;17.40;68.37
30744;BME280;17486;46.738;7.622;2023-09-19T03:58:12;95305.41;;;17.40;68.13
30744;BME280;17486;46.738;7.622;2023-09-19T04:00:38;95300.16;;;17.40;67.99
30744;BME280;17486;46.738;7.622;2023-09-19T04:03:04;95299.78;;;17.34;67.96
30744;BME280;17486;46.738;7.622;2023-09-19T04:05:31;95302.53;;;17.32;68.02
30744;BME280;17486;46.738;7.622;2023-09-19T04:07:58;95300.47;;;17.24;68.33
30744;BME280;17486;46.738;7.622;2023-09-19T04:10:23;95290.53;;;17.17;68.20
30744;BME280;17486;46.738;7.622;2023-09-19T04:12:53;95300.72;;;17.21;68.63
30744;BME280;17486;46.738;7.622;2023-09-19T04:15:19;95298.66;;;17.14;68.90
30744;BME280;17486;46.738;7.622;2023-09-19T04:17:44;95295.56;;;17.20;69.21
30744;BME280;17486;46.738;7.622;2023-09-19T04:20:09;95263.13;;;16.97;69.19
30744;BME280;17486;46.738;7.622;2023-09-19T04:22:37;95296.41;;;17.20;69.53
30744;BME280;17486;46.738;7.622;2023-09-19T04:25:03;95291.84;;;17.22;69.54
30744;BME280;17486;46.738;7.622;2023-09-19T04:27:29;95262.69;;;17.14;69.90
30744;BME280;17486;46.738;7.622;2023-09-19T04:29:54;95282.69;;;17.28;69.91
30744;BME280;17486;46.738;7.622;2023-09-19T04:32:24;95290.09;;;17.23;70.07
30744;BME280;17486;46.738;7.622;2023-09-19T04:34:49;95285.31;;;17.28;70.06
30744;BME280;17486;46.738;7.622;2023-09-19T04:37:15;95286.03;;;17.30;69.68
30744;BME280;17486;46.738;7.622;2023-09-19T04:39:40;95284.59;;;17.26;68.93
30744;BME280;17486;46.738;7.622;2023-09-19T04:42:05;95308.00;;;17.29;68.53
30744;BME280;17486;46.738;7.622;2023-09-19T04:44:31;95301.53;;;17.22;68.33
30744;BME280;17486;46.738;7.622;2023-09-19T04:46:56;95308.13;;;17.16;68.71
30744;BME280;17486;46.738;7.622;2023-09-19T04:49:22;95306.56;;;17.14;68.83
30744;BME280;17486;46.738;7.622;2023-09-19T04:51:47;95302.25;;;17.13;68.74
30744;BME280;17486;46.738;7.622;2023-09-19T04:54:13;95299.72;;;17.11;68.74
30744;BME280;17486;46.738;7.622;2023-09-19T04:56:38;95292.41;;;17.03;69.01
30744;BME280;17486;46.738;7.622;2023-09-19T04:59:05;95315.63;;;17.10;69.38
30744;BME280;17486;46.738;7.622;2023-09-19T05:01:31;95313.00;;;17.10;68.97
30744;BME280;17486;46.738;7.622;2023-09-19T05:03:56;95311.06;;;17.12;68.93
30744;BME280;17486;46.738;7.622;2023-09-19T05:06:22;95317.28;;;17.11;69.05
30744;BME280;17486;46.738;7.622;2023-09-19T05:08:50;95315.50;;;17.11;68.98
30744;BME280;17486;46.738;7.622;2023-09-19T05:11:17;95321.59;;;17.12;68.96
30744;BME280;17486;46.738;7.622;2023-09-19T05:13:43;95313.94;;;17.09;69.16
30744;BME280;17486;46.738;7.622;2023-09-19T05:16:08;95320.03;;;17.09;69.09
30744;BME280;17486;46.738;7.622;2023-09-19T05:18:35;95320.97;;;17.08;68.99
30744;BME280;17486;46.738;7.622;2023-09-19T05:21:04;95318.25;;;17.10;68.75
30744;BME280;17486;46.738;7.622;2023-09-19T05:23:29;95329.47;;;17.12;68.76
30744;BME280;17486;46.738;7.622;2023-09-19T05:25:56;95331.16;;;17.13;68.98
30744;BME280;17486;46.738;7.622;2023-09-19T05:28:23;95331.16;;;17.13;69.13
30744;BME280;17486;46.738;7.622;2023-09-19T05:30:49;95326.84;;;17.12;69.12
30744;BME280;17486;46.738;7.622;2023-09-19T05:33:15;95337.13;;;17.15;68.80
30744;BME280;17486;46.738;7.622;2023-09-19T05:35:40;95346.69;;;17.16;68.91
30744;BME280;17486;46.738;7.622;2023-09-19T05:38:07;95354.56;;;17.16;68.61
30744;BME280;17486;46.738;7.622;2023-09-19T05:40:34;95346.47;;;17.19;68.98
30744;BME280;17486;46.738;7.622;2023-09-19T05:43:00;95341.41;;;17.16;68.98
30744;BME280;17486;46.738;7.622;2023-09-19T05:45:26;95358.81;;;17.30;69.02
30744;BME280;17486;46.738;7.622;2023-09-19T05:47:52;95361.44;;;17.30;69.23
30744;BME280;17486;46.738;7.622;2023-09-19T05:50:26;95357.00;;;17.30;69.17
30744;BME280;17486;46.738;7.622;2023-09-19T05:52:52;95371.00;;;17.31;69.38
30744;BME280;17486;46.738;7.622;2023-09-19T05:55:18;95366.56;;;17.31;69.28
30744;BME280;17486;46.738;7.622;2023-09-19T05:57:49;95373.50;;;17.32;69.38
30744;BME280;17486;46.738;7.622;2023-09-19T06:00:15;95383.09;;;17.33;69.62
30744;BME280;17486;46.738;7.622;2023-09-19T06:02:43;95367.13;;;17.23;69.57
30744;BME280;17486;46.738;7.622;2023-09-19T06:05:10;95373.63;;;17.31;69.87
30744;BME280;17486;46.738;7.622;2023-09-19T06:07:36;95388.44;;;17.32;69.50
30744;BME280;17486;46.738;7.622;2023-09-19T06:10:06;95396.44;;;17.30;69.86
30744;BME280;17486;46.738;7.622;2023-09-19T06:12:44;95390.47;;;17.28;69.73
30744;BME280;17486;46.738;7.622;2023-09-19T06:15:11;95403.50;;;17.30;69.89
30744;BME280;17486;46.738;7.622;2023-09-19T06:17:42;95396.56;;;17.29;70.26
30744;BME280;17486;46.738;7.622;2023-09-19T06:20:07;95403.50;;;17.30;70.40
30744;BME280;17486;46.738;7.622;2023-09-19T06:22:40;95401.56;;;17.32;70.70
30744;BME280;17486;46.738;7.622;2023-09-19T06:25:07;95397.16;;;17.32;71.05
30744;BME280;17486;46.738;7.622;2023-09-19T06:27:33;95373.81;;;17.16;71.30
30744;BME280;17486;46.738;7.622;2023-09-19T06:30:01;95390.91;;;17.22;71.88
30744;BME280;17486;46.738;7.622;2023-09-19T06:32:27;95358.66;;;16.96;71.97
30744;BME280;17486;46.738;7.622;2023-09-19T06:34:52;95377.94;;;17.07;71.89
30744;BME280;17486;46.738;7.622;2023-09-19T06:37:20;95398.53;;;17.14;71.61
30744;BME280;17486;46.738;7.622;2023-09-19T06:39:46;95399.13;;;17.17;71.87
30744;BME280;17486;46.738;7.622;2023-09-19T06:42:15;95399.53;;;17.24;71.53
30744;BME280;17486;46.738;7.622;2023-09-19T06:44:42;95403.50;;;17.30;71.03
30744;BME280;17486;46.738;7.622;2023-09-19T06:47:08;95411.63;;;17.38;70.96
30744;BME280;17486;46.738;7.622;2023-09-19T06:49:34;95405.09;;;17.44;70.71
30744;BME280;17486;46.738;7.622;2023-09-19T06:52:00;95397.44;;;17.40;70.96
30744;BME280;17486;46.738;7.622;2023-09-19T06:54:25;95407.06;;;17.53;71.09
30744;BME280;17486;46.738;7.622;2023-09-19T06:56:55;95398.19;;;17.54;70.95
30744;BME280;17486;46.738;7.622;2023-09-19T06:59:20;95401.19;;;17.61;71.00
30744;BME280;17486;46.738;7.622;2023-09-19T07:01:46;95409.00;;;17.62;71.03
30744;BME280;17486;46.738;7.622;2023-09-19T07:04:12;95411.03;;;17.70;70.93
30744;BME280;17486;46.738;7.622;2023-09-19T07:06:38;95409.13;;;17.72;71.02
30744;BME280;17486;46.738;7.622;2023-09-19T07:09:03;95412.47;;;17.74;70.63
30744;BME280;17486;46.738;7.622;2023-09-19T07:11:29;95407.56;;;17.69;70.65
30744;BME280;17486;46.738;7.622;2023-09-19T07:13:56;95413.06;;;17.78;70.73
30744;BME280;17486;46.738;7.622;2023-09-19T07:16:21;95415.59;;;17.79;70.96
30744;BME280;17486;46.738;7.622;2023-09-19T07:18:55;95401.09;;;17.73;71.08
30744;BME280;17486;46.738;7.622;2023-09-19T07:21:22;95397.28;;;17.78;70.96
30744;BME280;17486;46.738;7.622;2023-09-19T07:23:48;95412.97;;;17.90;70.95
30744;BME280;17486;46.738;7.622;2023-09-19T07:26:13;95418.88;;;17.94;70.46
30744;BME280;17486;46.738;7.622;2023-09-19T07:28:38;95421.28;;;17.97;70.59
30744;BME280;17486;46.738;7.622;2023-09-19T07:31:04;95421.75;;;18.02;70.96
30744;BME280;17486;46.738;7.622;2023-09-19T07:33:30;95414.47;;;18.06;70.56
30744;BME280;17486;46.738;7.622;2023-09-19T07:35:55;95426.59;;;18.20;69.30
30744;BME280;17486;46.738;7.622;2023-09-19T07:38:21;95422.28;;;18.30;68.81
30744;BME280;17486;46.738;7.622;2023-09-19T07:40:47;95416.75;;;18.33;68.41
30744;BME280;17486;46.738;7.622;2023-09-19T07:43:13;95428.97;;;18.46;68.01
30744;BME280;17486;46.738;7.622;2023-09-19T07:45:38;95429.56;;;18.49;67.47
30744;BME280;17486;46.738;7.622;2023-09-19T07:48:05;95424.53;;;18.58;66.93
30744;BME280;17486;46.738;7.622;2023-09-19T07:50:34;95420.81;;;18.60;66.84
30744;BME280;17486;46.738;7.622;2023-09-19T07:53:02;95418.09;;;18.62;66.31
30744;BME280;17486;46.738;7.622;2023-09-19T07:55:30;95415.31;;;18.63;65.63
30744;BME280;17486;46.738;7.622;2023-09-19T07:57:55;95429.31;;;18.75;65.21
30744;BME280;17486;46.738;7.622;2023-09-19T08:00:21;95435.19;;;18.79;64.81
30744;BME280;17486;46.738;7.622;2023-09-19T08:02:46;95446.06;;;18.85;64.99
30744;BME280;17486;46.738;7.622;2023-09-19T08:05:13;95444.13;;;18.87;65.26
30744;BME280;17486;46.738;7.622;2023-09-19T08:07:43;95439.00;;;18.86;65.28
30744;BME280;17486;46.738;7.622;2023-09-19T08:10:09;95428.44;;;18.86;65.18
30744;BME280;17486;46.738;7.622;2023-09-19T08:12:39;95448.13;;;18.93;65.14
30744;BME280;17486;46.738;7.622;2023-09-19T08:15:16;95445.59;;;18.92;65.46
30744;BME280;17486;46.738;7.622;2023-09-19T08:17:42;95425.81;;;18.86;65.49
30744;BME280;17486;46.738;7.622;2023-09-19T08:20:08;95430.16;;;18.98;64.76
30744;BME280;17486;46.738;7.622;2023-09-19T08:22:42;95439.97;;;19.08;64.47
30744;BME280;17486;46.738;7.622;2023-09-19T08:25:08;95445.44;;;19.16;63.83
30744;BME280;17486;46.738;7.622;2023-09-19T08:27:34;95430.34;;;19.18;64.33
30744;BME280;17486;46.738;7.622;2023-09-19T08:30:01;95448.53;;;19.32;64.81
30744;BME280;17486;46.738;7.622;2023-09-19T08:32:28;95439.00;;;19.41;64.65
30744;BME280;17486;46.738;7.622;2023-09-19T08:34:54;95438.03;;;19.42;64.33
30744;BME280;17486;46.738;7.622;2023-09-19T08:37:19;95447.47;;;19.56;64.39
30744;BME280;17486;46.738;7.622;2023-09-19T08:39:44;95442.06;;;19.58;63.40
30744;BME280;17486;46.738;7.622;2023-09-19T08:42:10;95444.53;;;19.70;64.04
30744;BME280;17486;46.738;7.622;2023-09-19T08:44:38;95440.63;;;19.86;63.67
30744;BME280;17486;46.738;7.622;2023-09-19T08:47:14;95448.22;;;20.00;63.01
30744;BME280;17486;46.738;7.622;2023-09-19T08:52:30;95449.31;;;20.19;62.15
30744;BME280;17486;46.738;7.622;2023-09-19T08:55:02;95442.53;;;20.26;62.48
30744;BME280;17486;46.738;7.622;2023-09-19T08:57:33;95444.22;;;20.27;61.30
30744;BME280;17486;46.738;7.622;2023-09-19T09:00:02;95433.66;;;20.27;61.21
30744;BME280;17486;46.738;7.622;2023-09-19T09:02:31;95439.75;;;20.28;61.68
30744;BME280;17486;46.738;7.622;2023-09-19T09:04:59;95442.91;;;20.43;62.03
30744;BME280;17486;46.738;7.622;2023-09-19T09:07:25;95437.06;;;20.49;61.45
30744;BME280;17486;46.738;7.622;2023-09-19T09:09:52;95415.69;;;20.52;60.79
30744;BME280;17486;46.738;7.622;2023-09-19T09:12:18;95436.06;;;20.71;60.60
30744;BME280;17486;46.738;7.622;2023-09-19T09:14:46;95437.81;;;20.82;61.25
30744;BME280;17486;46.738;7.622;2023-09-19T09:17:15;95428.19;;;20.91;60.82
30744;BME280;17486;46.738;7.622;2023-09-19T09:19:42;95427.53;;;20.98;60.28
30744;BME280;17486;46.738;7.622;2023-09-19T09:22:09;95441.91;;;21.06;59.60
30744;BME280;17486;46.738;7.622;2023-09-19T09:24:36;95444.81;;;21.12;59.91
30744;BME280;17486;46.738;7.622;2023-09-19T09:27:04;95441.50;;;21.20;60.26
30744;BME280;17486;46.738;7.622;2023-09-19T09:29:48;95423.38;;;21.15;60.21
30744;BME280;17486;46.738;7.622;2023-09-19T09:34:57;95432.63;;;21.41;59.51
30744;BME280;17486;46.738;7.622;2023-09-19T09:37:24;95432.03;;;21.47;58.91
30744;BME280;17486;46.738;7.622;2023-09-19T09:39:59;95432.59;;;21.50;58.71
30744;BME280;17486;46.738;7.622;2023-09-19T09:42:44;95430.69;;;21.52;57.52
30744;BME280;17486;46.738;7.622;2023-09-19T09:45:19;95435.41;;;21.49;57.02
30744;BME280;17486;46.738;7.622;2023-09-19T09:47:53;95420.94;;;21.43;56.91
30744;BME280;17486;46.738;7.622;2023-09-19T09:50:25;95426.06;;;21.45;56.65
30744;BME280;17486;46.738;7.622;2023-09-19T09:53:29;95426.34;;;21.42;57.05
30744;BME280;17486;46.738;7.622;2023-09-19T09:58:28;95422.72;;;21.43;57.05
30744;BME280;17486;46.738;7.622;2023-09-19T10:00:58;95425.94;;;21.56;56.73
30744;BME280;17486;46.738;7.622;2023-09-19T10:03:41;95421.06;;;21.61;56.45
30744;BME280;17486;46.738;7.622;2023-09-19T10:06:17;95404.50;;;21.69;56.77
30744;BME280;17486;46.738;7.622;2023-09-19T10:09:05;95406.56;;;21.85;56.81
30744;BME280;17486;46.738;7.622;2023-09-19T10:11:44;95408.72;;;22.19;56.00
30744;BME280;17486;46.738;7.622;2023-09-19T10:14:11;95400.31;;;22.43;55.49
30744;BME280;17486;46.738;7.622;2023-09-19T10:16:47;95417.50;;;22.67;54.89
30744;BME280;17486;46.738;7.622;2023-09-19T10:19:23;95415.66;;;22.77;54.19
30744;BME280;17486;46.738;7.622;2023-09-19T10:21:50;95408.44;;;22.69;53.41
30744;BME280;17486;46.738;7.622;2023-09-19T10:24:19;95421.38;;;22.73;53.51
30744;BME280;17486;46.738;7.622;2023-09-19T10:26:45;95405.38;;;22.64;53.31
30744;BME280;17486;46.738;7.622;2023-09-19T10:29:13;95418.09;;;22.61;53.13
30744;BME280;17486;46.738;7.622;2023-09-19T10:31:41;95419.13;;;22.50;53.32
30744;BME280;17486;46.738;7.622;2023-09-19T10:34:14;95421.38;;;22.45;53.53
30744;BME280;17486;46.738;7.622;2023-09-19T10:36:45;95415.81;;;22.38;53.77
30744;BME280;17486;46.738;7.622;2023-09-19T10:39:14;95416.09;;;22.35;53.91
30744;BME280;17486;46.738;7.622;2023-09-19T10:41:49;95400.75;;;22.19;53.92
30744;BME280;17486;46.738;7.622;2023-09-19T10:44:21;95412.63;;;22.25;54.02
30744;BME280;17486;46.738;7.622;2023-09-19T10:46:47;95423.06;;;22.26;53.80
30744;BME280;17486;46.738;7.622;2023-09-19T10:49:13;95411.50;;;22.17;53.40
30744;BME280;17486;46.738;7.622;2023-09-19T10:51:42;95409.72;;;22.18;53.65
30744;BME280;17486;46.738;7.622;2023-09-19T10:54:11;95397.59;;;22.06;53.45
30744;BME280;17486;46.738;7.622;2023-09-19T10:56:43;95411.66;;;22.16;53.40
30744;BME280;17486;46.738;7.622;2023-09-19T10:59:14;95423.94;;;22.17;53.02
30744;BME280;17486;46.738;7.622;2023-09-19T11:01:53;95413.44;;;22.25;52.98
30744;BME280;17486;46.738;7.622;2023-09-19T11:04:32;95412.47;;;22.36;53.05
30744;BME280;17486;46.738;7.622;2023-09-19T11:10:02;95408.75;;;22.57;52.63
30744;BME280;17486;46.738;7.622;2023-09-19T11:15:07;95378.59;;;22.85;51.03
30744;BME280;17486;46.738;7.622;2023-09-19T11:25:46;95388.69;;;23.46;50.56
30744;BME280;17486;46.738;7.622;2023-09-19T11:28:27;95386.41;;;23.51;50.29
30744;BME280;17486;46.738;7.622;2023-09-19T11:30:53;95385.09;;;23.55;49.55
30744;BME280;17486;46.738;7.622;2023-09-19T11:33:29;95391.28;;;23.56;49.70
30744;BME280;17486;46.738;7.622;2023-09-19T11:36:37;95388.53;;;23.65;49.58
30744;BME280;17486;46.738;7.622;2023-09-19T11:39:03;95378.63;;;23.76;48.98
30744;BME280;17486;46.738;7.622;2023-09-19T11:41:40;95383.97;;;23.94;48.96
30744;BME280;17486;46.738;7.622;2023-09-19T11:49:16;95380.75;;;24.43;47.73
30744;BME280;17486;46.738;7.622;2023-09-19T11:51:50;95373.41;;;24.63;47.05
30744;BME280;17486;46.738;7.622;2023-09-19T11:54:17;95379.94;;;24.85;47.00
30744;BME280;17486;46.738;7.622;2023-09-19T11:56:53;95373.34;;;25.14;46.27
30744;BME280;17486;46.738;7.622;2023-09-19T11:59:29;95380.94;;;25.35;45.19
30744;BME280;17486;46.738;7.622;2023-09-19T12:02:01;95377.47;;;25.43;44.45
30744;BME280;17486;46.738;7.622;2023-09-19T12:04:41;95370.47;;;25.42;44.19
30744;BME280;17486;46.738;7.622;2023-09-19T12:07:13;95368.44;;;25.44;43.88
30744;BME280;17486;46.738;7.622;2023-09-19T12:09:46;95363.47;;;25.41;44.59
30744;BME280;17486;46.738;7.622;2023-09-19T12:12:23;95358.25;;;25.06;43.20
30744;BME280;17486;46.738;7.622;2023-09-19T12:14:52;95356.22;;;25.00;43.94
30744;BME280;17486;46.738;7.622;2023-09-19T12:17:18;95365.84;;;24.93;44.25
30744;BME280;17486;46.738;7.622;2023-09-19T12:19:53;95359.97;;;24.81;44.49
30744;BME280;17486;46.738;7.622;2023-09-19T12:22:19;95337.34;;;24.77;45.02
30744;BME280;17486;46.738;7.622;2023-09-19T12:24:46;95343.22;;;24.97;44.93
30744;BME280;17486;46.738;7.622;2023-09-19T12:27:12;95342.59;;;25.11;44.65
30744;BME280;17486;46.738;7.622;2023-09-19T12:29:48;95336.28;;;25.29;44.40
30744;BME280;17486;46.738;7.622;2023-09-19T12:32:36;95337.16;;;25.54;44.29
30744;BME280;17486;46.738;7.622;2023-09-19T12:35:06;95338.50;;;25.67;43.46
30744;BME280;17486;46.738;7.622;2023-09-19T12:37:36;95340.31;;;25.82;43.81
30744;BME280;17486;46.738;7.622;2023-09-19T12:40:08;95325.44;;;25.96;42.80
30744;BME280;17486;46.738;7.622;2023-09-19T12:42:54;95326.91;;;26.24;42.13
30744;BME280;17486;46.738;7.622;2023-09-19T12:45:30;95328.00;;;26.54;41.92
30744;BME280;17486;46.738;7.622;2023-09-19T12:48:21;95329.72;;;26.78;41.97
30744;BME280;17486;46.738;7.622;2023-09-19T12:51:08;95328.06;;;26.77;40.91
30744;BME280;17486;46.738;7.622;2023-09-19T12:53:43;95321.06;;;26.76;40.33
30744;BME280;17486;46.738;7.622;2023-09-19T12:56:11;95323.91;;;26.75;40.39
30744;BME280;17486;46.738;7.622;2023-09-19T12:58:53;95320.41;;;26.74;40.84
30744;BME280;17486;46.738;7.622;2023-09-19T13:01:22;95308.03;;;26.81;40.68
30744;BME280;17486;46.738;7.622;2023-09-19T13:04:41;95314.56;;;26.71;40.59
30744;BME280;17486;46.738;7.622;2023-09-19T13:07:05;95314.13;;;26.59;40.33
30744;BME280;17486;46.738;7.622;2023-09-19T13:09:33;95306.28;;;26.57;41.05
30744;BME280;17486;46.738;7.622;2023-09-19T13:12:01;95302.63;;;26.58;40.72
30744;BME280;17486;46.738;7.622;2023-09-19T13:14:28;95311.31;;;26.52;40.65
30744;BME280;17486;46.738;7.622;2023-09-19T13:17:04;95311.03;;;26.39;40.23
30744;BME280;17486;46.738;7.622;2023-09-19T13:22:01;95301.56;;;26.36;41.07
30744;BME280;17486;46.738;7.622;2023-09-19T13:24:27;95296.88;;;26.38;41.19
30744;BME280;17486;46.738;7.622;2023-09-19T13:26:55;95296.22;;;26.36;40.82
30744;BME280;17486;46.738;7.622;2023-09-19T13:29:20;95276.56;;;26.37;41.57
30744;BME280;17486;46.738;7.622;2023-09-19T13:31:49;95282.03;;;26.44;41.21
30744;BME280;17486;46.738;7.622;2023-09-19T13:34:15;95292.78;;;26.59;41.10
30744;BME280;17486;46.738;7.622;2023-09-19T13:36:43;95274.09;;;26.59;41.24
30744;BME280;17486;46.738;7.622;2023-09-19T13:39:08;95281.22;;;26.67;40.96
30744;BME280;17486;46.738;7.622;2023-09-19T13:41:38;95289.94;;;26.60;41.28
30744;BME280;17486;46.738;7.622;2023-09-19T13:44:04;95287.63;;;26.57;41.41
30744;BME280;17486;46.738;7.622;2023-09-19T13:46:30;95284.34;;;26.47;41.30
30744;BME280;17486;46.738;7.622;2023-09-19T13:48:58;95285.88;;;26.33;42.11
30744;BME280;17486;46.738;7.622;2023-09-19T13:51:25;95266.13;;;26.19;41.86